sensor_id;sensor_type;location;lat;lon;timestamp;P1;durP1;ratioP1;P2;durP2;ratioP2
39404;SDS011;25121;51.090;17.038;2023-03-29T00:00:15;35.10;;;16.60;;
39404;SDS011;25121;51.090;17.038;2023-03-29T00:01:38;34.20;;;18.02;;
39404;SDS011;25121;51.090;17.038;2023-03-29T00:03:01;34.22;;;16.88;;
39404;SDS011;25121;51.090;17.038;2023-03-29T00:04:23;37.70;;;17.00;;
39404;SDS011;25121;51.090;17.038;2023-03-29T00:05:46;32.85;;;16.92;;
39404;SDS011;25121;51.090;17.038;2023-03-29T00:08:31;39.53;;;17.85;;
39404;SDS011;25121;51.090;17.038;2023-03-29T00:09:54;35.08;;;17.95;;
39404;SDS011;25121;51.090;17.038;2023-03-29T00:11:16;32.72;;;17.13;;
39404;SDS011;25121;51.090;17.038;2023-03-29T00:14:00;34.38;;;17.17;;
39404;SDS011;25121;51.090;17.038;2023-03-29T00:15:22;32.58;;;17.17;;
39404;SDS011;25121;51.090;17.038;2023-03-29T00:18:06;35.17;;;16.33;;
39404;SDS011;25121;51.090;17.038;2023-03-29T00:19:28;33.20;;;17.13;;
39404;SDS011;25121;51.090;17.038;2023-03-29T00:20:55;38.13;;;16.73;;
39404;SDS011;25121;51.090;17.038;2023-03-29T00:22:16;33.38;;;17.00;;
39404;SDS011;25121;51.090;17.038;2023-03-29T00:23:52;31.55;;;15.35;;
39404;SDS011;25121;51.090;17.038;2023-03-29T00:25:15;32.92;;;16.65;;
39404;SDS011;25121;51.090;17.038;2023-03-29T00:26:36;31.38;;;17.50;;
39404;SDS011;25121;51.090;17.038;2023-03-29T00:28:01;37.22;;;18.23;;
39404;SDS011;25121;51.090;17.038;2023-03-29T00:29:22;35.22;;;16.90;;
39404;SDS011;25121;51.090;17.038;2023-03-29T00:30:44;36.28;;;18.45;;
39404;SDS011;25121;51.090;17.038;2023-03-29T00:33:28;35.57;;;16.23;;
39404;SDS011;25121;51.090;17.038;2023-03-29T00:34:49;34.45;;;17.92;;
39404;SDS011;25121;51.090;17.038;2023-03-29T00:36:11;44.33;;;17.95;;
39404;SDS011;25121;51.090;17.038;2023-03-29T00:37:33;36.55;;;18.00;;
39404;SDS011;25121;51.090;17.038;2023-03-29T00:38:56;32.63;;;17.27;;
39404;SDS011;25121;51.090;17.038;2023-03-29T00:40:19;34.47;;;18.55;;
39404;SDS011;25121;51.090;17.038;2023-03-29T00:43:04;39.10;;;18.52;;
39404;SDS011;25121;51.090;17.038;2023-03-29T00:46:16;43.95;;;18.02;;
39404;SDS011;25121;51.090;17.038;2023-03-29T00:47:39;37.50;;;17.83;;
39404;SDS011;25121;51.090;17.038;2023-03-29T00:49:08;36.40;;;18.50;;
39404;SDS011;25121;51.090;17.038;2023-03-29T00:51:16;39.42;;;18.48;;
39404;SDS011;25121;51.090;17.038;2023-03-29T00:52:40;38.95;;;19.52;;
39404;SDS011;25121;51.090;17.038;2023-03-29T00:54:05;39.13;;;18.27;;
39404;SDS011;25121;51.090;17.038;2023-03-29T00:55:35;36.03;;;18.25;;
39404;SDS011;25121;51.090;17.038;2023-03-29T00:56:58;34.17;;;17.25;;
39404;SDS011;25121;51.090;17.038;2023-03-29T00:58:23;41.10;;;17.70;;
39404;SDS011;25121;51.090;17.038;2023-03-29T00:59:51;37.03;;;19.17;;
39404;SDS011;25121;51.090;17.038;2023-03-29T01:01:16;35.70;;;18.05;;
39404;SDS011;25121;51.090;17.038;2023-03-29T01:02:45;34.45;;;17.27;;
39404;SDS011;25121;51.090;17.038;2023-03-29T01:04:14;34.50;;;18.10;;
39404;SDS011;25121;51.090;17.038;2023-03-29T01:05:42;42.00;;;19.10;;
39404;SDS011;25121;51.090;17.038;2023-03-29T01:07:09;37.35;;;18.98;;
39404;SDS011;25121;51.090;17.038;2023-03-29T01:08:41;34.60;;;17.95;;
39404;SDS011;25121;51.090;17.038;2023-03-29T01:10:09;34.72;;;18.40;;
39404;SDS011;25121;51.090;17.038;2023-03-29T01:11:36;40.83;;;19.05;;
39404;SDS011;25121;51.090;17.038;2023-03-29T01:13:03;41.10;;;18.63;;
39404;SDS011;25121;51.090;17.038;2023-03-29T01:14:31;37.35;;;19.08;;
39404;SDS011;25121;51.090;17.038;2023-03-29T01:15:56;36.92;;;19.50;;
39404;SDS011;25121;51.090;17.038;2023-03-29T01:17:20;36.03;;;18.13;;
39404;SDS011;25121;51.090;17.038;2023-03-29T01:18:45;36.25;;;18.67;;
39404;SDS011;25121;51.090;17.038;2023-03-29T01:20:09;38.63;;;19.10;;
39404;SDS011;25121;51.090;17.038;2023-03-29T01:21:34;38.33;;;18.73;;
39404;SDS011;25121;51.090;17.038;2023-03-29T01:23:05;34.75;;;17.95;;
39404;SDS011;25121;51.090;17.038;2023-03-29T01:24:45;35.33;;;18.25;;
39404;SDS011;25121;51.090;17.038;2023-03-29T01:26:21;33.05;;;17.83;;
39404;SDS011;25121;51.090;17.038;2023-03-29T01:27:53;38.95;;;19.00;;
39404;SDS011;25121;51.090;17.038;2023-03-29T01:29:23;37.55;;;18.42;;
39404;SDS011;25121;51.090;17.038;2023-03-29T01:30:47;34.83;;;17.63;;
39404;SDS011;25121;51.090;17.038;2023-03-29T01:32:16;38.28;;;17.80;;
39404;SDS011;25121;51.090;17.038;2023-03-29T01:33:43;34.67;;;17.63;;
39404;SDS011;25121;51.090;17.038;2023-03-29T01:35:10;35.15;;;17.40;;
39404;SDS011;25121;51.090;17.038;2023-03-29T01:36:36;31.48;;;16.85;;
39404;SDS011;25121;51.090;17.038;2023-03-29T01:38:02;38.80;;;18.33;;
39404;SDS011;25121;51.090;17.038;2023-03-29T01:39:29;38.05;;;19.17;;
39404;SDS011;25121;51.090;17.038;2023-03-29T01:40:55;32.75;;;15.98;;
39404;SDS011;25121;51.090;17.038;2023-03-29T01:42:21;36.25;;;17.75;;
39404;SDS011;25121;51.090;17.038;2023-03-29T01:43:54;30.75;;;16.80;;
39404;SDS011;25121;51.090;17.038;2023-03-29T01:45:21;31.55;;;16.33;;
39404;SDS011;25121;51.090;17.038;2023-03-29T01:46:44;36.15;;;17.45;;
39404;SDS011;25121;51.090;17.038;2023-03-29T01:48:14;35.58;;;17.90;;
39404;SDS011;25121;51.090;17.038;2023-03-29T01:49:39;36.60;;;17.33;;
39404;SDS011;25121;51.090;17.038;2023-03-29T01:51:07;35.40;;;16.75;;
39404;SDS011;25121;51.090;17.038;2023-03-29T01:52:34;35.45;;;17.85;;
39404;SDS011;25121;51.090;17.038;2023-03-29T01:54:00;34.25;;;16.80;;
39404;SDS011;25121;51.090;17.038;2023-03-29T01:55:30;31.25;;;15.32;;
39404;SDS011;25121;51.090;17.038;2023-03-29T01:56:55;33.90;;;17.65;;
39404;SDS011;25121;51.090;17.038;2023-03-29T01:58:20;35.65;;;17.17;;
39404;SDS011;25121;51.090;17.038;2023-03-29T01:59:50;34.55;;;17.08;;
39404;SDS011;25121;51.090;17.038;2023-03-29T02:01:17;29.45;;;15.40;;
39404;SDS011;25121;51.090;17.038;2023-03-29T02:02:43;37.80;;;16.75;;
39404;SDS011;25121;51.090;17.038;2023-03-29T02:04:06;31.75;;;15.52;;
39404;SDS011;25121;51.090;17.038;2023-03-29T02:05:33;34.33;;;15.52;;
39404;SDS011;25121;51.090;17.038;2023-03-29T02:06:57;27.90;;;14.93;;
39404;SDS011;25121;51.090;17.038;2023-03-29T02:08:20;32.33;;;15.15;;
39404;SDS011;25121;51.090;17.038;2023-03-29T02:09:44;29.88;;;15.90;;
39404;SDS011;25121;51.090;17.038;2023-03-29T02:11:08;32.20;;;15.65;;
39404;SDS011;25121;51.090;17.038;2023-03-29T02:12:31;27.23;;;14.48;;
39404;SDS011;25121;51.090;17.038;2023-03-29T02:13:56;27.35;;;15.65;;
39404;SDS011;25121;51.090;17.038;2023-03-29T02:15:19;31.30;;;14.55;;
39404;SDS011;25121;51.090;17.038;2023-03-29T02:16:42;29.33;;;14.65;;
39404;SDS011;25121;51.090;17.038;2023-03-29T02:18:06;29.48;;;14.55;;
39404;SDS011;25121;51.090;17.038;2023-03-29T02:19:27;30.35;;;15.07;;
39404;SDS011;25121;51.090;17.038;2023-03-29T02:20:49;30.25;;;16.35;;
39404;SDS011;25121;51.090;17.038;2023-03-29T02:22:13;32.33;;;16.65;;
39404;SDS011;25121;51.090;17.038;2023-03-29T02:23:36;33.67;;;16.33;;
39404;SDS011;25121;51.090;17.038;2023-03-29T02:25:05;36.60;;;16.38;;
39404;SDS011;25121;51.090;17.038;2023-03-29T02:26:30;28.33;;;15.40;;
39404;SDS011;25121;51.090;17.038;2023-03-29T02:27:53;32.28;;;15.80;;
39404;SDS011;25121;51.090;17.038;2023-03-29T02:29:16;35.60;;;16.77;;
39404;SDS011;25121;51.090;17.038;2023-03-29T02:30:41;33.45;;;16.88;;
39404;SDS011;25121;51.090;17.038;2023-03-29T02:32:11;35.28;;;17.30;;
39404;SDS011;25121;51.090;17.038;2023-03-29T02:33:38;38.85;;;18.30;;
39404;SDS011;25121;51.090;17.038;2023-03-29T02:35:08;34.83;;;16.88;;
39404;SDS011;25121;51.090;17.038;2023-03-29T02:36:40;39.40;;;18.02;;
39404;SDS011;25121;51.090;17.038;2023-03-29T02:38:07;38.50;;;17.70;;
39404;SDS011;25121;51.090;17.038;2023-03-29T02:39:32;35.80;;;18.27;;
39404;SDS011;25121;51.090;17.038;2023-03-29T02:40:56;36.58;;;17.95;;
39404;SDS011;25121;51.090;17.038;2023-03-29T02:42:23;40.63;;;18.95;;
39404;SDS011;25121;51.090;17.038;2023-03-29T02:43:47;37.10;;;18.45;;
39404;SDS011;25121;51.090;17.038;2023-03-29T02:45:10;41.20;;;19.05;;
39404;SDS011;25121;51.090;17.038;2023-03-29T02:46:36;37.13;;;17.40;;
39404;SDS011;25121;51.090;17.038;2023-03-29T02:48:00;36.63;;;18.23;;
39404;SDS011;25121;51.090;17.038;2023-03-29T02:49:25;30.50;;;16.42;;
39404;SDS011;25121;51.090;17.038;2023-03-29T02:50:48;36.42;;;17.83;;
39404;SDS011;25121;51.090;17.038;2023-03-29T02:52:14;38.55;;;17.67;;
39404;SDS011;25121;51.090;17.038;2023-03-29T02:53:39;35.00;;;16.73;;
39404;SDS011;25121;51.090;17.038;2023-03-29T02:55:04;34.72;;;16.23;;
39404;SDS011;25121;51.090;17.038;2023-03-29T02:56:39;34.78;;;18.17;;
39404;SDS011;25121;51.090;17.038;2023-03-29T02:58:05;28.80;;;15.90;;
39404;SDS011;25121;51.090;17.038;2023-03-29T02:59:29;29.55;;;14.98;;
39404;SDS011;25121;51.090;17.038;2023-03-29T03:00:52;37.42;;;17.58;;
39404;SDS011;25121;51.090;17.038;2023-03-29T03:02:18;32.88;;;17.40;;
39404;SDS011;25121;51.090;17.038;2023-03-29T03:03:39;31.27;;;16.48;;
39404;SDS011;25121;51.090;17.038;2023-03-29T03:05:02;35.55;;;15.45;;
39404;SDS011;25121;51.090;17.038;2023-03-29T03:06:24;33.92;;;16.42;;
39404;SDS011;25121;51.090;17.038;2023-03-29T03:07:48;33.38;;;15.95;;
39404;SDS011;25121;51.090;17.038;2023-03-29T03:09:14;29.42;;;16.27;;
39404;SDS011;25121;51.090;17.038;2023-03-29T03:10:38;30.85;;;15.85;;
39404;SDS011;25121;51.090;17.038;2023-03-29T03:12:02;30.92;;;15.60;;
39404;SDS011;25121;51.090;17.038;2023-03-29T03:13:23;30.63;;;14.93;;
39404;SDS011;25121;51.090;17.038;2023-03-29T03:14:45;29.60;;;14.32;;
39404;SDS011;25121;51.090;17.038;2023-03-29T03:16:09;29.75;;;14.93;;
39404;SDS011;25121;51.090;17.038;2023-03-29T03:17:35;30.10;;;15.93;;
39404;SDS011;25121;51.090;17.038;2023-03-29T03:18:59;32.05;;;14.38;;
39404;SDS011;25121;51.090;17.038;2023-03-29T03:20:21;28.50;;;14.02;;
39404;SDS011;25121;51.090;17.038;2023-03-29T03:21:48;24.13;;;13.23;;
39404;SDS011;25121;51.090;17.038;2023-03-29T03:23:11;29.85;;;14.38;;
39404;SDS011;25121;51.090;17.038;2023-03-29T03:24:34;26.52;;;15.07;;
39404;SDS011;25121;51.090;17.038;2023-03-29T03:25:57;30.80;;;13.30;;
39404;SDS011;25121;51.090;17.038;2023-03-29T03:27:20;26.35;;;13.57;;
39404;SDS011;25121;51.090;17.038;2023-03-29T03:28:41;29.73;;;13.95;;
39404;SDS011;25121;51.090;17.038;2023-03-29T03:30:16;25.70;;;13.70;;
39404;SDS011;25121;51.090;17.038;2023-03-29T03:32:12;24.25;;;12.95;;
39404;SDS011;25121;51.090;17.038;2023-03-29T03:34:01;23.90;;;13.65;;
39404;SDS011;25121;51.090;17.038;2023-03-29T03:35:38;26.35;;;13.18;;
39404;SDS011;25121;51.090;17.038;2023-03-29T03:37:03;25.30;;;13.57;;
39404;SDS011;25121;51.090;17.038;2023-03-29T03:38:35;29.77;;;14.00;;
39404;SDS011;25121;51.090;17.038;2023-03-29T03:39:58;27.10;;;12.63;;
39404;SDS011;25121;51.090;17.038;2023-03-29T03:41:22;27.75;;;13.02;;
39404;SDS011;25121;51.090;17.038;2023-03-29T03:42:46;23.15;;;13.15;;
39404;SDS011;25121;51.090;17.038;2023-03-29T03:44:09;24.00;;;11.88;;
39404;SDS011;25121;51.090;17.038;2023-03-29T03:45:34;27.75;;;12.88;;
39404;SDS011;25121;51.090;17.038;2023-03-29T03:47:06;24.55;;;12.38;;
39404;SDS011;25121;51.090;17.038;2023-03-29T03:48:31;23.40;;;11.50;;
39404;SDS011;25121;51.090;17.038;2023-03-29T03:50:16;29.05;;;12.68;;
39404;SDS011;25121;51.090;17.038;2023-03-29T03:51:39;21.88;;;11.90;;
39404;SDS011;25121;51.090;17.038;2023-03-29T03:53:06;22.65;;;11.48;;
39404;SDS011;25121;51.090;17.038;2023-03-29T03:54:48;23.58;;;11.82;;
39404;SDS011;25121;51.090;17.038;2023-03-29T03:56:35;22.58;;;11.75;;
39404;SDS011;25121;51.090;17.038;2023-03-29T03:58:24;28.30;;;12.15;;
39404;SDS011;25121;51.090;17.038;2023-03-29T03:59:49;20.85;;;13.00;;
39404;SDS011;25121;51.090;17.038;2023-03-29T04:01:18;23.20;;;12.00;;
39404;SDS011;25121;51.090;17.038;2023-03-29T04:02:54;26.08;;;11.15;;
39404;SDS011;25121;51.090;17.038;2023-03-29T04:04:17;21.17;;;11.20;;
39404;SDS011;25121;51.090;17.038;2023-03-29T04:06:00;24.95;;;11.63;;
39404;SDS011;25121;51.090;17.038;2023-03-29T04:07:39;27.25;;;13.02;;
39404;SDS011;25121;51.090;17.038;2023-03-29T04:09:18;18.10;;;11.45;;
39404;SDS011;25121;51.090;17.038;2023-03-29T04:10:54;22.65;;;10.95;;
39404;SDS011;25121;51.090;17.038;2023-03-29T04:12:23;20.45;;;11.45;;
39404;SDS011;25121;51.090;17.038;2023-03-29T04:15:33;23.58;;;10.60;;
39404;SDS011;25121;51.090;17.038;2023-03-29T04:17:04;22.58;;;11.32;;
39404;SDS011;25121;51.090;17.038;2023-03-29T04:18:41;24.38;;;11.70;;
39404;SDS011;25121;51.090;17.038;2023-03-29T04:20:03;19.30;;;11.70;;
39404;SDS011;25121;51.090;17.038;2023-03-29T04:21:34;27.08;;;11.93;;
39404;SDS011;25121;51.090;17.038;2023-03-29T04:22:57;24.38;;;12.57;;
39404;SDS011;25121;51.090;17.038;2023-03-29T04:24:21;19.27;;;11.52;;
39404;SDS011;25121;51.090;17.038;2023-03-29T04:26:04;19.38;;;11.77;;
39404;SDS011;25121;51.090;17.038;2023-03-29T04:27:37;21.17;;;11.90;;
39404;SDS011;25121;51.090;17.038;2023-03-29T04:29:16;26.83;;;12.02;;
39404;SDS011;25121;51.090;17.038;2023-03-29T04:30:44;28.08;;;12.15;;
39404;SDS011;25121;51.090;17.038;2023-03-29T04:32:12;24.40;;;13.40;;
39404;SDS011;25121;51.090;17.038;2023-03-29T04:33:48;28.00;;;13.50;;
39404;SDS011;25121;51.090;17.038;2023-03-29T04:35:11;25.60;;;12.63;;
39404;SDS011;25121;51.090;17.038;2023-03-29T04:36:35;25.13;;;12.95;;
39404;SDS011;25121;51.090;17.038;2023-03-29T04:38:00;21.45;;;11.90;;
39404;SDS011;25121;51.090;17.038;2023-03-29T04:39:26;22.45;;;13.38;;
39404;SDS011;25121;51.090;17.038;2023-03-29T04:40:55;35.30;;;14.57;;
39404;SDS011;25121;51.090;17.038;2023-03-29T04:42:37;29.92;;;13.63;;
39404;SDS011;25121;51.090;17.038;2023-03-29T04:44:01;22.23;;;12.35;;
39404;SDS011;25121;51.090;17.038;2023-03-29T04:45:24;25.58;;;14.13;;
39404;SDS011;25121;51.090;17.038;2023-03-29T04:47:02;37.03;;;15.48;;
39404;SDS011;25121;51.090;17.038;2023-03-29T04:48:41;26.70;;;12.73;;
39404;SDS011;25121;51.090;17.038;2023-03-29T04:50:31;25.63;;;12.40;;
39404;SDS011;25121;51.090;17.038;2023-03-29T04:51:55;24.23;;;12.88;;
39404;SDS011;25121;51.090;17.038;2023-03-29T04:53:20;23.27;;;12.52;;
39404;SDS011;25121;51.090;17.038;2023-03-29T04:54:43;25.30;;;12.57;;
39404;SDS011;25121;51.090;17.038;2023-03-29T04:56:17;24.67;;;13.38;;
39404;SDS011;25121;51.090;17.038;2023-03-29T04:58:00;20.57;;;11.57;;
39404;SDS011;25121;51.090;17.038;2023-03-29T04:59:26;22.23;;;12.63;;
39404;SDS011;25121;51.090;17.038;2023-03-29T05:00:54;21.52;;;12.13;;
39404;SDS011;25121;51.090;17.038;2023-03-29T05:02:22;26.15;;;12.82;;
39404;SDS011;25121;51.090;17.038;2023-03-29T05:05:16;25.98;;;12.35;;
39404;SDS011;25121;51.090;17.038;2023-03-29T05:06:50;26.98;;;12.80;;
39404;SDS011;25121;51.090;17.038;2023-03-29T05:08:41;26.25;;;13.00;;
39404;SDS011;25121;51.090;17.038;2023-03-29T05:10:24;26.33;;;13.25;;
39404;SDS011;25121;51.090;17.038;2023-03-29T05:12:09;26.05;;;12.27;;
39404;SDS011;25121;51.090;17.038;2023-03-29T05:13:47;25.30;;;12.82;;
39404;SDS011;25121;51.090;17.038;2023-03-29T05:15:19;28.15;;;12.75;;
39404;SDS011;25121;51.090;17.038;2023-03-29T05:16:42;25.90;;;13.07;;
39404;SDS011;25121;51.090;17.038;2023-03-29T05:18:04;25.38;;;12.82;;
39404;SDS011;25121;51.090;17.038;2023-03-29T05:19:26;24.45;;;13.18;;
39404;SDS011;25121;51.090;17.038;2023-03-29T05:20:49;23.75;;;12.68;;
39404;SDS011;25121;51.090;17.038;2023-03-29T05:22:15;27.80;;;12.80;;
39404;SDS011;25121;51.090;17.038;2023-03-29T05:23:41;27.90;;;12.43;;
39404;SDS011;25121;51.090;17.038;2023-03-29T05:25:04;26.20;;;12.57;;
39404;SDS011;25121;51.090;17.038;2023-03-29T05:26:25;20.88;;;11.95;;
39404;SDS011;25121;51.090;17.038;2023-03-29T05:27:50;23.92;;;12.10;;
39404;SDS011;25121;51.090;17.038;2023-03-29T05:29:12;25.80;;;12.35;;
39404;SDS011;25121;51.090;17.038;2023-03-29T05:30:36;25.27;;;12.68;;
39404;SDS011;25121;51.090;17.038;2023-03-29T05:32:07;24.48;;;12.45;;
39404;SDS011;25121;51.090;17.038;2023-03-29T05:33:31;24.35;;;13.15;;
39404;SDS011;25121;51.090;17.038;2023-03-29T05:34:57;19.92;;;12.20;;
39404;SDS011;25121;51.090;17.038;2023-03-29T05:37:44;29.30;;;12.65;;
39404;SDS011;25121;51.090;17.038;2023-03-29T05:39:07;21.48;;;11.88;;
39404;SDS011;25121;51.090;17.038;2023-03-29T05:40:32;24.00;;;13.23;;
39404;SDS011;25121;51.090;17.038;2023-03-29T05:42:30;30.05;;;13.02;;
39404;SDS011;25121;51.090;17.038;2023-03-29T05:43:57;27.17;;;12.40;;
39404;SDS011;25121;51.090;17.038;2023-03-29T05:45:21;23.90;;;12.20;;
39404;SDS011;25121;51.090;17.038;2023-03-29T05:46:44;30.73;;;12.90;;
39404;SDS011;25121;51.090;17.038;2023-03-29T05:48:08;25.27;;;12.80;;
39404;SDS011;25121;51.090;17.038;2023-03-29T05:49:33;24.83;;;12.52;;
39404;SDS011;25121;51.090;17.038;2023-03-29T05:51:12;22.20;;;12.32;;
39404;SDS011;25121;51.090;17.038;2023-03-29T05:52:36;27.75;;;13.73;;
39404;SDS011;25121;51.090;17.038;2023-03-29T05:54:01;20.67;;;11.60;;
39404;SDS011;25121;51.090;17.038;2023-03-29T05:55:24;21.75;;;11.80;;
39404;SDS011;25121;51.090;17.038;2023-03-29T05:56:46;21.45;;;11.70;;
39404;SDS011;25121;51.090;17.038;2023-03-29T05:58:08;22.67;;;11.40;;
39404;SDS011;25121;51.090;17.038;2023-03-29T05:59:32;22.40;;;10.98;;
39404;SDS011;25121;51.090;17.038;2023-03-29T06:00:55;21.90;;;12.02;;
39404;SDS011;25121;51.090;17.038;2023-03-29T06:02:40;21.38;;;11.57;;
39404;SDS011;25121;51.090;17.038;2023-03-29T06:04:06;23.83;;;11.43;;
39404;SDS011;25121;51.090;17.038;2023-03-29T06:05:38;21.35;;;11.07;;
39404;SDS011;25121;51.090;17.038;2023-03-29T06:07:00;23.63;;;11.60;;
39404;SDS011;25121;51.090;17.038;2023-03-29T06:08:25;23.05;;;11.85;;
39404;SDS011;25121;51.090;17.038;2023-03-29T06:09:57;23.30;;;11.82;;
39404;SDS011;25121;51.090;17.038;2023-03-29T06:11:22;24.63;;;11.75;;
39404;SDS011;25121;51.090;17.038;2023-03-29T06:13:08;23.98;;;11.10;;
39404;SDS011;25121;51.090;17.038;2023-03-29T06:14:31;23.23;;;11.95;;
39404;SDS011;25121;51.090;17.038;2023-03-29T06:16:16;29.02;;;10.65;;
39404;SDS011;25121;51.090;17.038;2023-03-29T06:19:00;22.13;;;11.57;;
39404;SDS011;25121;51.090;17.038;2023-03-29T06:20:22;26.05;;;11.55;;
39404;SDS011;25121;51.090;17.038;2023-03-29T06:21:50;25.20;;;11.60;;
39404;SDS011;25121;51.090;17.038;2023-03-29T06:23:18;21.00;;;11.35;;
39404;SDS011;25121;51.090;17.038;2023-03-29T06:24:42;22.42;;;10.50;;
39404;SDS011;25121;51.090;17.038;2023-03-29T06:26:15;20.27;;;10.68;;
39404;SDS011;25121;51.090;17.038;2023-03-29T06:27:40;19.83;;;11.07;;
39404;SDS011;25121;51.090;17.038;2023-03-29T06:29:02;18.23;;;11.10;;
39404;SDS011;25121;51.090;17.038;2023-03-29T06:30:25;19.25;;;10.55;;
39404;SDS011;25121;51.090;17.038;2023-03-29T06:31:48;23.67;;;11.23;;
39404;SDS011;25121;51.090;17.038;2023-03-29T06:33:29;18.23;;;9.88;;
39404;SDS011;25121;51.090;17.038;2023-03-29T06:35:13;21.42;;;10.55;;
39404;SDS011;25121;51.090;17.038;2023-03-29T06:36:41;19.02;;;9.95;;
39404;SDS011;25121;51.090;17.038;2023-03-29T06:38:07;20.42;;;10.90;;
39404;SDS011;25121;51.090;17.038;2023-03-29T06:39:53;23.10;;;11.60;;
39404;SDS011;25121;51.090;17.038;2023-03-29T06:41:31;18.93;;;9.70;;
39404;SDS011;25121;51.090;17.038;2023-03-29T06:42:59;19.80;;;11.20;;
39404;SDS011;25121;51.090;17.038;2023-03-29T06:44:24;23.15;;;10.13;;
39404;SDS011;25121;51.090;17.038;2023-03-29T06:45:56;20.27;;;10.80;;
39404;SDS011;25121;51.090;17.038;2023-03-29T06:47:26;27.55;;;11.68;;
39404;SDS011;25121;51.090;17.038;2023-03-29T06:48:51;20.60;;;11.00;;
39404;SDS011;25121;51.090;17.038;2023-03-29T06:50:15;23.17;;;10.65;;
39404;SDS011;25121;51.090;17.038;2023-03-29T06:51:55;23.90;;;10.00;;
39404;SDS011;25121;51.090;17.038;2023-03-29T06:53:17;25.30;;;11.05;;
39404;SDS011;25121;51.090;17.038;2023-03-29T06:54:47;18.98;;;10.23;;
39404;SDS011;25121;51.090;17.038;2023-03-29T06:56:10;19.50;;;10.73;;
39404;SDS011;25121;51.090;17.038;2023-03-29T06:57:36;19.75;;;10.70;;
39404;SDS011;25121;51.090;17.038;2023-03-29T06:58:59;17.20;;;10.00;;
39404;SDS011;25121;51.090;17.038;2023-03-29T07:00:39;20.35;;;9.57;;
39404;SDS011;25121;51.090;17.038;2023-03-29T07:02:09;22.35;;;9.20;;
39404;SDS011;25121;51.090;17.038;2023-03-29T07:03:53;22.05;;;9.85;;
39404;SDS011;25121;51.090;17.038;2023-03-29T07:05:23;18.17;;;9.52;;
39404;SDS011;25121;51.090;17.038;2023-03-29T07:06:47;16.27;;;8.30;;
39404;SDS011;25121;51.090;17.038;2023-03-29T07:08:17;16.50;;;9.27;;
39404;SDS011;25121;51.090;17.038;2023-03-29T07:09:51;16.45;;;9.27;;
39404;SDS011;25121;51.090;17.038;2023-03-29T07:11:33;20.20;;;9.85;;
39404;SDS011;25121;51.090;17.038;2023-03-29T07:13:23;19.30;;;8.70;;
39404;SDS011;25121;51.090;17.038;2023-03-29T07:14:52;22.20;;;10.07;;
39404;SDS011;25121;51.090;17.038;2023-03-29T07:16:19;21.35;;;10.25;;
39404;SDS011;25121;51.090;17.038;2023-03-29T07:18:02;18.80;;;9.98;;
39404;SDS011;25121;51.090;17.038;2023-03-29T07:19:25;14.32;;;8.32;;
39404;SDS011;25121;51.090;17.038;2023-03-29T07:20:55;16.27;;;8.82;;
39404;SDS011;25121;51.090;17.038;2023-03-29T07:22:23;16.92;;;8.40;;
39404;SDS011;25121;51.090;17.038;2023-03-29T07:23:53;17.58;;;8.40;;
39404;SDS011;25121;51.090;17.038;2023-03-29T07:25:16;14.38;;;8.18;;
39404;SDS011;25121;51.090;17.038;2023-03-29T07:26:39;19.55;;;7.95;;
39404;SDS011;25121;51.090;17.038;2023-03-29T07:28:27;17.83;;;7.60;;
39404;SDS011;25121;51.090;17.038;2023-03-29T07:29:58;16.27;;;7.60;;
39404;SDS011;25121;51.090;17.038;2023-03-29T07:31:34;15.30;;;7.85;;
39404;SDS011;25121;51.090;17.038;2023-03-29T07:33:32;14.85;;;7.18;;
39404;SDS011;25121;51.090;17.038;2023-03-29T07:35:28;11.77;;;7.05;;
39404;SDS011;25121;51.090;17.038;2023-03-29T07:37:13;15.20;;;7.15;;
39404;SDS011;25121;51.090;17.038;2023-03-29T07:38:57;14.63;;;7.18;;
39404;SDS011;25121;51.090;17.038;2023-03-29T07:40:27;14.77;;;7.18;;
39404;SDS011;25121;51.090;17.038;2023-03-29T07:44:59;18.60;;;7.65;;
39404;SDS011;25121;51.090;17.038;2023-03-29T07:47:23;17.40;;;8.52;;
39404;SDS011;25121;51.090;17.038;2023-03-29T07:48:45;15.63;;;7.65;;
39404;SDS011;25121;51.090;17.038;2023-03-29T07:50:10;16.17;;;7.22;;
39404;SDS011;25121;51.090;17.038;2023-03-29T07:51:33;17.63;;;8.27;;
39404;SDS011;25121;51.090;17.038;2023-03-29T07:53:01;13.70;;;7.60;;
39404;SDS011;25121;51.090;17.038;2023-03-29T07:54:25;15.25;;;7.80;;
39404;SDS011;25121;51.090;17.038;2023-03-29T07:56:07;13.70;;;7.38;;
39404;SDS011;25121;51.090;17.038;2023-03-29T07:57:52;12.13;;;6.97;;
39404;SDS011;25121;51.090;17.038;2023-03-29T07:59:14;19.05;;;7.22;;
39404;SDS011;25121;51.090;17.038;2023-03-29T08:00:42;14.82;;;7.57;;
39404;SDS011;25121;51.090;17.038;2023-03-29T08:02:24;12.45;;;6.57;;
39404;SDS011;25121;51.090;17.038;2023-03-29T08:03:53;13.02;;;6.35;;
39404;SDS011;25121;51.090;17.038;2023-03-29T08:05:27;10.07;;;5.40;;
39404;SDS011;25121;51.090;17.038;2023-03-29T08:07:06;18.08;;;6.10;;
39404;SDS011;25121;51.090;17.038;2023-03-29T08:08:58;10.23;;;5.88;;
39404;SDS011;25121;51.090;17.038;2023-03-29T08:10:20;14.40;;;6.63;;
39404;SDS011;25121;51.090;17.038;2023-03-29T08:11:56;12.30;;;6.72;;
39404;SDS011;25121;51.090;17.038;2023-03-29T08:13:25;16.80;;;7.63;;
39404;SDS011;25121;51.090;17.038;2023-03-29T08:15:08;12.57;;;6.53;;
39404;SDS011;25121;51.090;17.038;2023-03-29T08:16:48;10.20;;;5.95;;
39404;SDS011;25121;51.090;17.038;2023-03-29T08:18:33;10.82;;;5.97;;
39404;SDS011;25121;51.090;17.038;2023-03-29T08:19:58;9.25;;;5.55;;
39404;SDS011;25121;51.090;17.038;2023-03-29T08:21:21;11.15;;;5.93;;
39404;SDS011;25121;51.090;17.038;2023-03-29T08:22:43;10.10;;;5.95;;
39404;SDS011;25121;51.090;17.038;2023-03-29T08:24:23;10.38;;;5.47;;
39404;SDS011;25121;51.090;17.038;2023-03-29T08:25:50;11.32;;;5.97;;
39404;SDS011;25121;51.090;17.038;2023-03-29T08:27:12;11.45;;;6.10;;
39404;SDS011;25121;51.090;17.038;2023-03-29T08:28:38;13.95;;;6.72;;
39404;SDS011;25121;51.090;17.038;2023-03-29T08:30:01;13.43;;;5.47;;
39404;SDS011;25121;51.090;17.038;2023-03-29T08:31:26;15.30;;;6.95;;
39404;SDS011;25121;51.090;17.038;2023-03-29T08:32:50;13.82;;;6.10;;
39404;SDS011;25121;51.090;17.038;2023-03-29T08:34:15;10.70;;;5.43;;
39404;SDS011;25121;51.090;17.038;2023-03-29T08:37:08;8.35;;;5.15;;
39404;SDS011;25121;51.090;17.038;2023-03-29T08:38:34;13.15;;;5.93;;
39404;SDS011;25121;51.090;17.038;2023-03-29T08:39:57;9.73;;;5.75;;
39404;SDS011;25121;51.090;17.038;2023-03-29T08:41:26;10.20;;;5.38;;
39404;SDS011;25121;51.090;17.038;2023-03-29T08:43:06;11.65;;;5.57;;
39404;SDS011;25121;51.090;17.038;2023-03-29T08:45:01;8.18;;;5.03;;
39404;SDS011;25121;51.090;17.038;2023-03-29T08:46:35;12.50;;;5.93;;
39404;SDS011;25121;51.090;17.038;2023-03-29T08:48:30;11.82;;;5.68;;
39404;SDS011;25121;51.090;17.038;2023-03-29T08:49:57;11.68;;;6.18;;
39404;SDS011;25121;51.090;17.038;2023-03-29T08:51:31;8.65;;;5.43;;
39404;SDS011;25121;51.090;17.038;2023-03-29T08:52:57;10.10;;;6.00;;